Time;durP1;ratioP1;P1;durP2;ratioP2;P2;SDS_P1;SDS_P2;PMS_P1;PMS_P2;Temp;Humidity;BMP_temperature;BMP_pressure;BME280_temperature;BME280_humidity;BME280_pressure;Samples;Min_cycle;Max_cycle;Signal;HPM_P1;HPM_P2
2022/05/04 00:01:55;;;;;;;7.92;3.17;;;;;;;4.13;64.19;101753.10;1692780;82;22585;-83
2022/05/04 00:04:22;;;;;;;11.70;3.40;;;;;;;4.09;64.33;101758.13;1707189;82;21062;-86
2022/05/04 00:06:48;;;;;;;10.13;3.30;;;;;;;4.05;64.38;101755.19;1732086;81;21173;-83
2022/05/04 00:09:15;;;;;;;10.90;4.00;;;;;;;4.03;64.40;101751.58;1707840;82;21185;-84
2022/05/04 00:11:44;;;;;;;12.23;4.95;;;;;;;3.98;64.48;101753.89;1704899;82;21141;-87
2022/05/04 00:14:11;;;;;;;13.20;6.25;;;;;;;3.96;64.61;101757.17;1710318;82;21788;-88
2022/05/04 00:16:38;;;;;;;15.58;7.12;;;;;;;3.91;64.78;101754.68;1728503;81;21072;-87
2022/05/04 00:19:05;;;;;;;12.05;5.85;;;;;;;3.85;64.88;101759.08;1700904;81;21086;-87
2022/05/04 00:21:32;;;;;;;13.53;6.17;;;;;;;3.78;65.05;101755.54;1703329;82;21145;-86
2022/05/04 00:23:59;;;;;;;13.08;5.12;;;;;;;3.71;65.17;101758.11;1703208;81;21185;-87
2022/05/04 00:26:25;;;;;;;12.15;5.87;;;;;;;3.66;65.29;101760.78;1700996;82;21818;-86
2022/05/04 00:28:53;;;;;;;15.58;6.25;;;;;;;3.62;65.45;101766.58;1680471;83;21135;-88
2022/05/04 00:31:19;;;;;;;12.35;5.58;;;;;;;3.56;65.58;101772.27;1668387;84;21080;-83
2022/05/04 00:33:46;;;;;;;17.23;6.65;;;;;;;3.54;65.72;101768.66;1684646;82;21115;-87
2022/05/04 00:36:13;;;;;;;16.25;7.25;;;;;;;3.50;65.79;101766.64;1688774;84;21096;-83
2022/05/04 00:38:40;;;;;;;14.20;7.22;;;;;;;3.47;65.85;101772.92;1660853;85;22624;-83
2022/05/04 00:41:06;;;;;;;16.67;6.65;;;;;;;3.45;65.94;101772.84;1707996;82;21174;-87
2022/05/04 00:43:34;;;;;;;12.60;6.12;;;;;;;3.44;66.06;101776.64;1697524;82;21105;-88
2022/05/04 00:46:01;;;;;;;14.33;6.15;;;;;;;3.43;66.20;101780.91;1727938;81;21158;-84
2022/05/04 00:48:28;;;;;;;11.80;5.62;;;;;;;3.41;66.33;101782.91;1696723;81;21432;-83
2022/05/04 00:50:55;;;;;;;14.87;6.62;;;;;;;3.40;66.47;101780.72;1708481;82;21795;-83
2022/05/04 00:53:22;;;;;;;12.80;6.78;;;;;;;3.39;66.57;101788.00;1727699;81;21637;-86
2022/05/04 00:55:49;;;;;;;13.18;6.50;;;;;;;3.33;66.69;101787.58;1718159;81;21113;-85
2022/05/04 01:01:01;;;;;;;13.55;5.83;;;;;;;3.21;66.97;101787.62;1710673;81;21062;-85
2022/05/04 01:03:28;;;;;;;13.18;5.67;;;;;;;3.20;67.19;101788.41;1713898;80;22703;-86
2022/05/04 01:05:55;;;;;;;14.58;6.58;;;;;;;3.17;67.22;101794.67;1712285;82;21115;-83
2022/05/04 01:08:22;;;;;;;13.95;6.10;;;;;;;3.11;67.34;101791.23;1665242;83;21046;-86
2022/05/04 01:10:49;;;;;;;11.15;5.28;;;;;;;3.08;67.50;101791.45;1694488;82;21311;-86
2022/05/04 01:13:20;;;;;;;13.05;5.92;;;;;;;3.04;67.58;101798.50;1709351;82;21095;-83
2022/05/04 01:15:48;;;;;;;11.40;5.03;;;;;;;2.97;67.65;101798.88;1662091;84;22508;-83
2022/05/04 01:18:15;;;;;;;15.45;6.08;;;;;;;2.94;67.84;101802.14;1720015;81;21221;-87
2022/05/04 01:20:42;;;;;;;14.93;5.37;;;;;;;2.92;67.95;101799.83;1711414;82;21135;-86
2022/05/04 01:23:09;;;;;;;11.50;4.70;;;;;;;2.88;68.01;101800.40;1673360;83;21237;-87
2022/05/04 01:25:36;;;;;;;8.05;4.50;;;;;;;2.89;68.12;101799.59;1681028;82;21099;-87
2022/05/04 01:28:04;;;;;;;12.18;5.50;;;;;;;2.84;68.18;101798.38;1681942;83;22012;-87
2022/05/04 01:30:32;;;;;;;16.12;6.58;;;;;;;2.80;68.22;101802.84;1678280;84;21461;-88
2022/05/04 01:33:02;;;;;;;12.43;5.92;;;;;;;2.79;68.32;101812.32;1675439;83;21155;-83
2022/05/04 01:35:29;;;;;;;15.05;6.20;;;;;;;2.75;68.30;101807.70;1677743;83;21255;-82
2022/05/04 01:37:56;;;;;;;12.30;5.83;;;;;;;2.73;68.50;101808.88;1676301;83;21075;-82
2022/05/04 01:40:23;;;;;;;17.82;6.15;;;;;;;2.74;68.54;101805.91;1685355;83;22612;-83
2022/05/04 01:42:49;;;;;;;18.05;6.70;;;;;;;2.71;68.59;101806.56;1657467;84;21086;-87
2022/05/04 01:45:16;;;;;;;12.13;5.37;;;;;;;2.72;68.67;101813.95;1706663;82;21146;-84
2022/05/04 01:47:48;;;;;;;12.73;5.47;;;;;;;2.69;68.63;101816.35;1688131;83;21099;-84
2022/05/04 01:50:15;;;;;;;14.20;6.67;;;;;;;2.67;68.67;101810.14;1681293;83;21064;-82
2022/05/04 01:52:42;;;;;;;13.93;5.37;;;;;;;2.64;68.71;101812.50;1732897;80;21874;-83
2022/05/04 01:55:09;;;;;;;12.58;5.50;;;;;;;2.63;68.82;101819.41;1720700;81;21091;-87
2022/05/04 01:57:40;;;;;;;14.90;5.65;;;;;;;2.60;68.83;101815.67;1711909;81;21093;-82
2022/05/04 02:00:07;;;;;;;11.95;5.40;;;;;;;2.59;68.90;101814.77;1739895;80;21559;-87
2022/05/04 02:02:37;;;;;;;11.70;4.75;;;;;;;2.55;68.89;101820.51;1736376;80;21048;-87
2022/05/04 02:05:05;;;;;;;10.78;4.83;;;;;;;2.55;68.94;101823.52;1661217;85;21906;-83
2022/05/04 02:07:35;;;;;;;12.23;5.47;;;;;;;2.49;68.94;101813.16;1695642;82;22997;-83
2022/05/04 02:10:06;;;;;;;10.70;4.72;;;;;;;2.45;68.99;101825.42;1688046;83;21172;-85
2022/05/04 02:12:34;;;;;;;12.00;5.28;;;;;;;2.41;69.08;101819.49;1709133;82;22109;-86
2022/05/04 02:15:02;;;;;;;10.70;4.72;;;;;;;2.35;68.98;101822.94;1693683;83;21059;-83
2022/05/04 02:17:30;;;;;;;11.25;4.70;;;;;;;2.31;69.08;101827.40;1710307;81;21931;-87
2022/05/04 02:19:57;;;;;;;13.98;5.00;;;;;;;2.28;69.23;101820.26;1694047;81;21066;-87
2022/05/04 02:22:23;;;;;;;10.43;4.87;;;;;;;2.27;69.27;101824.96;1707895;81;21041;-86
2022/05/04 02:24:51;;;;;;;16.42;5.60;;;;;;;2.27;69.38;101824.03;1667828;83;22511;-84
2022/05/04 02:27:17;;;;;;;12.33;5.05;;;;;;;2.26;69.40;101827.03;1665989;83;21556;-86
2022/05/04 02:29:44;;;;;;;13.62;5.35;;;;;;;2.26;69.42;101822.23;1712383;82;22636;-87
2022/05/04 02:32:11;;;;;;;13.10;5.50;;;;;;;2.26;69.47;101823.54;1720832;81;21453;-83
2022/05/04 02:37:54;;;;;;;9.50;5.35;;;;;;;2.26;69.46;101826.14;1720318;81;21077;-88
2022/05/04 02:39:52;;;;;;;9.70;5.03;;;;;;;2.24;69.40;101834.22;1713168;81;21687;-84
2022/05/04 02:42:19;;;;;;;16.20;5.58;;;;;;;2.21;69.42;101830.07;1736800;80;21737;-88
2022/05/04 02:44:46;;;;;;;14.35;6.10;;;;;;;2.19;69.42;101832.95;1724389;80;22135;-83
2022/05/04 02:47:13;;;;;;;11.80;5.28;;;;;;;2.15;69.45;101830.51;1734403;81;21563;-87
2022/05/04 02:49:39;;;;;;;14.80;5.85;;;;;;;2.13;69.43;101831.69;1716075;82;21074;-88
2022/05/04 02:52:07;;;;;;;9.30;5.22;;;;;;;2.13;69.56;101826.89;1726277;80;21043;-89
2022/05/04 02:54:34;;;;;;;12.60;5.60;;;;;;;2.13;69.59;101830.79;1724684;80;21879;-84
2022/05/04 02:57:01;;;;;;;11.80;5.70;;;;;;;2.13;69.62;101838.18;1698375;81;21177;-83
2022/05/04 02:59:29;;;;;;;13.15;5.90;;;;;;;2.14;69.63;101840.41;1730089;81;21082;-90
2022/05/04 03:04:42;;;;;;;11.15;5.45;;;;;;;2.18;69.68;101841.14;1724674;80;21024;-89
2022/05/04 03:07:09;;;;;;;11.40;6.00;;;;;;;2.22;69.67;101849.67;1739818;80;21765;-90
2022/05/04 03:09:35;;;;;;;17.32;6.12;;;;;;;2.25;69.64;101847.70;1711780;81;21109;-85
2022/05/04 03:12:03;;;;;;;14.00;5.85;;;;;;;2.28;69.61;101850.13;1699233;81;21239;-90
2022/05/04 03:14:30;;;;;;;16.82;6.35;;;;;;;2.31;69.58;101849.08;1738986;80;21235;-88
2022/05/04 03:16:56;;;;;;;12.40;5.87;;;;;;;2.37;69.58;101854.23;1737909;81;21615;-85
2022/05/04 03:19:24;;;;;;;11.63;6.12;;;;;;;2.44;69.54;101852.59;1731779;81;21721;-85
2022/05/04 03:21:52;;;;;;;14.58;5.95;;;;;;;2.48;69.49;101858.15;1729321;81;21138;-84
2022/05/04 03:24:20;;;;;;;14.80;6.08;;;;;;;2.40;69.49;101831.06;1723866;80;21181;-84
2022/05/04 03:26:48;;;;;;;13.00;5.95;;;;;;;2.61;69.48;101856.45;1680527;82;21706;-84
2022/05/04 03:29:16;;;;;;;10.35;4.85;;;;;;;2.67;69.44;101855.23;1699795;82;21128;-89
2022/05/04 03:31:44;;;;;;;11.60;5.22;;;;;;;2.80;69.64;101850.95;1683335;83;21627;-84
2022/05/04 03:34:11;;;;;;;14.83;5.53;;;;;;;3.42;70.52;101855.02;1708380;82;21099;-89
2022/05/04 03:36:41;;;;;;;11.25;5.00;;;;;;;4.48;71.17;101851.91;1698807;81;22975;-90
2022/05/04 03:39:22;;;;;;;9.53;5.20;;;;;;;5.87;70.86;101844.72;1643129;85;21139;-88
2022/05/04 03:41:51;;;;;;;13.70;6.12;;;;;;;7.23;69.70;101844.45;1702908;83;21189;-89
2022/05/04 03:44:17;;;;;;;9.18;4.65;;;;;;;8.67;68.45;101849.02;1689496;83;22643;-89
2022/05/04 03:46:50;;;;;;;9.93;5.05;;;;;;;9.85;66.94;101824.86;1703182;82;21260;-88
2022/05/04 03:49:22;;;;;;;10.43;5.20;;;;;;;11.05;65.28;101848.45;1718887;81;21243;-84
2022/05/04 03:51:49;;;;;;;14.87;5.47;;;;;;;12.11;63.77;101853.88;1712634;81;21102;-85
2022/05/04 03:54:16;;;;;;;10.30;4.95;;;;;;;13.12;62.18;101847.61;1702711;81;21336;-85
2022/05/04 03:56:43;;;;;;;9.18;4.83;;;;;;;13.95;60.61;101843.56;1678726;83;21845;-86
2022/05/04 03:59:09;;;;;;;9.15;4.97;;;;;;;14.67;59.17;101841.56;1695279;83;21189;-86
2022/05/04 04:01:36;;;;;;;9.98;5.45;;;;;;;15.34;57.64;101842.31;1692673;82;21116;-81
2022/05/04 04:04:03;;;;;;;11.50;5.42;;;;;;;16.04;56.68;101841.17;1695505;82;21221;-81
2022/05/04 04:06:55;;;;;;;;;;;;;;;;;;;;;
2022/05/04 04:11:39;;;;;;;8.50;4.75;;;;;;;17.68;52.83;101844.34;1709589;82;21202;-88
2022/05/04 04:14:06;;;;;;;7.78;4.17;;;;;;;18.45;52.09;101842.63;1700193;81;21054;-83
2022/05/04 04:16:33;;;;;;;8.90;4.62;;;;;;;19.27;51.01;101843.31;1702344;83;21067;-85
2022/05/04 04:19:00;;;;;;;7.87;4.65;;;;;;;19.99;49.83;101840.59;1708051;82;21177;-83
2022/05/04 04:24:15;;;;;;;9.28;4.72;;;;;;;21.47;47.92;101844.73;1678473;83;21138;-90
2022/05/04 04:26:41;;;;;;;7.12;4.28;;;;;;;22.20;46.73;101847.98;1694441;83;21405;-85
2022/05/04 04:29:16;;;;;;;10.75;4.70;;;;;;;22.90;45.95;101849.31;1697087;83;21092;-85
2022/05/04 04:31:46;;;;;;;4.65;3.15;;;;;;;23.64;44.81;101854.41;1676581;82;21141;-88
2022/05/04 04:34:13;;;;;;;6.65;4.20;;;;;;;24.29;43.33;101856.28;1683864;84;21820;-88
2022/05/04 04:36:42;;;;;;;8.05;4.00;;;;;;;24.78;42.55;101858.27;1656763;84;21095;-89
2022/05/04 04:39:09;;;;;;;9.00;4.15;;;;;;;25.47;41.63;101855.71;1662292;83;21092;-86
2022/05/04 04:41:39;;;;;;;6.92;3.65;;;;;;;26.09;40.90;101855.78;1683412;82;21348;-91
2022/05/04 04:44:06;;;;;;;5.05;2.83;;;;;;;26.72;39.46;101859.28;1675114;83;21091;-90
2022/05/04 04:46:33;;;;;;;6.03;3.17;;;;;;;27.21;38.59;101867.94;1688429;82;21803;-85
2022/05/04 04:49:00;;;;;;;5.87;2.90;;;;;;;27.72;37.59;101867.47;1691427;83;21142;-82
2022/05/04 04:51:26;;;;;;;5.20;3.12;;;;;;;28.18;36.42;101860.28;1694340;83;21101;-84
2022/05/04 04:53:53;;;;;;;6.00;3.20;;;;;;;28.57;35.75;101869.44;1684975;83;21071;-85
2022/05/04 04:56:20;;;;;;;8.45;3.92;;;;;;;28.97;34.84;101851.86;1700269;82;21213;-88
2022/05/04 04:58:47;;;;;;;6.05;3.65;;;;;;;29.08;34.07;101826.61;1685813;82;21809;-85
2022/05/04 05:01:14;;;;;;;8.58;4.70;;;;;;;29.42;33.21;101860.69;1682037;83;21086;-88
2022/05/04 05:03:41;;;;;;;7.05;4.00;;;;;;;29.79;32.58;101862.95;1691826;83;21047;-87
2022/05/04 05:06:07;;;;;;;10.35;5.37;;;;;;;29.98;31.97;101864.95;1686896;83;21322;-90
2022/05/04 05:08:37;;;;;;;11.12;4.85;;;;;;;30.21;31.18;101862.69;1684564;82;21074;-84
2022/05/04 05:11:04;;;;;;;8.88;5.22;;;;;;;30.39;30.37;101868.78;1698991;83;22316;-85
2022/05/04 05:13:31;;;;;;;8.58;4.53;;;;;;;30.63;29.74;101871.41;1691235;83;21090;-86
2022/05/04 05:16:07;;;;;;;8.25;4.35;;;;;;;30.70;29.10;101872.94;1701773;82;21275;-84
2022/05/04 05:18:36;;;;;;;4.90;2.35;;;;;;;30.67;28.37;101874.45;1696435;82;21366;-85
2022/05/04 05:21:03;;;;;;;3.62;1.92;;;;;;;30.73;27.87;101874.66;1699547;82;21673;-83
2022/05/04 05:23:30;;;;;;;5.37;2.15;;;;;;;30.64;27.22;101875.04;1710539;81;21277;-81
2022/05/04 05:25:57;;;;;;;4.87;2.25;;;;;;;30.56;26.78;101878.95;1722287;81;21474;-83
2022/05/04 05:28:24;;;;;;;5.30;2.60;;;;;;;30.32;26.36;101870.41;1714788;82;21051;-83
2022/05/04 05:30:51;;;;;;;5.62;2.47;;;;;;;29.30;25.52;101872.88;1703948;82;21046;-81
2022/05/04 05:33:18;;;;;;;5.12;2.72;;;;;;;27.53;25.04;101877.02;1696773;83;21110;-88
2022/05/04 05:35:45;;;;;;;4.55;2.80;;;;;;;25.33;24.82;101882.91;1716797;82;22768;-86
2022/05/04 05:38:11;;;;;;;4.72;2.50;;;;;;;23.26;25.37;101887.50;1699832;81;21572;-86
2022/05/04 05:40:38;;;;;;;7.33;2.52;;;;;;;21.50;25.82;101872.84;1706458;82;21071;-84
2022/05/04 05:43:05;;;;;;;8.23;3.42;;;;;;;20.05;26.50;101897.19;1705304;81;21324;-85
2022/05/04 05:45:32;;;;;;;4.90;2.58;;;;;;;18.64;27.02;101893.03;1702645;81;21094;-84
2022/05/04 05:48:00;;;;;;;4.97;2.47;;;;;;;17.52;27.76;101899.16;1702409;81;21867;-82
2022/05/04 05:50:27;;;;;;;3.75;2.40;;;;;;;16.68;28.55;101903.50;1678377;83;21094;-85
2022/05/04 05:52:54;;;;;;;12.00;2.80;;;;;;;16.00;29.04;101907.93;1695320;81;21273;-82
2022/05/04 05:55:20;;;;;;;5.70;2.83;;;;;;;15.40;29.76;101906.55;1688972;83;21161;-82
2022/05/04 05:57:47;;;;;;;5.97;2.87;;;;;;;14.92;30.28;101906.72;1726830;81;21252;-81
2022/05/04 06:00:16;;;;;;;6.92;2.52;;;;;;;14.50;30.62;101913.06;1722568;81;21775;-81
2022/05/04 06:02:45;;;;;;;5.35;2.60;;;;;;;14.09;30.97;101912.34;1736854;81;21713;-83
2022/05/04 06:05:12;;;;;;;5.15;2.17;;;;;;;13.68;31.20;101921.26;1698801;82;21082;-84
2022/05/04 06:07:39;;;;;;;7.17;2.60;;;;;;;13.30;31.56;101918.70;1701807;82;21189;-83
2022/05/04 06:10:07;;;;;;;8.30;2.87;;;;;;;12.93;31.93;101926.32;1699777;82;21075;-84
2022/05/04 06:12:34;;;;;;;5.58;2.52;;;;;;;12.65;32.30;101923.14;1653676;83;22611;-81
2022/05/04 06:15:01;;;;;;;5.70;2.92;;;;;;;12.45;32.66;101924.63;1686325;83;21082;-81
2022/05/04 06:17:28;;;;;;;7.17;3.10;;;;;;;12.27;33.08;101927.03;1668472;84;21106;-84
2022/05/04 06:19:55;;;;;;;6.00;3.37;;;;;;;12.10;33.40;101923.33;1705341;83;21039;-84
2022/05/04 06:22:22;;;;;;;7.92;3.10;;;;;;;11.97;33.93;101917.11;1690982;83;21157;-84
2022/05/04 06:24:49;;;;;;;7.00;3.77;;;;;;;11.96;34.26;101924.57;1688941;83;21779;-81
2022/05/04 06:27:16;;;;;;;7.12;3.22;;;;;;;11.87;34.44;101923.75;1672856;82;21145;-84
2022/05/04 06:35:14;;;;;;;7.72;2.58;;;;;;;11.61;35.20;101928.90;1739946;80;21027;-81
2022/05/04 06:37:40;;;;;;;5.70;2.50;;;;;;;11.49;35.45;101923.16;1723828;81;21783;-84
2022/05/04 06:40:12;;;;;;;10.65;3.25;;;;;;;11.41;35.98;101928.52;1698628;83;21133;-84
2022/05/04 06:42:39;;;;;;;6.65;3.12;;;;;;;11.41;36.33;101929.44;1701499;82;22348;-81
2022/05/04 06:45:07;;;;;;;6.12;2.60;;;;;;;11.44;36.53;101929.97;1709128;82;21208;-84
2022/05/04 06:47:34;;;;;;;7.67;3.25;;;;;;;11.47;36.74;101929.68;1708464;82;21071;-81
2022/05/04 06:50:03;;;;;;;9.50;3.80;;;;;;;11.43;36.82;101929.47;1665673;83;22052;-81
2022/05/04 06:52:32;;;;;;;6.70;3.45;;;;;;;11.35;37.04;101929.59;1689192;83;21063;-81
2022/05/04 06:54:59;;;;;;;7.65;2.95;;;;;;;11.37;37.36;101924.85;1690138;83;21093;-84
2022/05/04 06:57:26;;;;;;;6.10;3.27;;;;;;;11.43;37.66;101927.77;1692300;83;21089;-85
2022/05/04 06:59:54;;;;;;;6.17;2.83;;;;;;;11.54;37.82;101929.48;1675186;82;21191;-81
2022/05/04 07:02:21;;;;;;;8.95;3.20;;;;;;;11.67;38.02;101928.23;1687162;83;22812;-80
2022/05/04 07:04:48;;;;;;;7.60;3.30;;;;;;;11.77;38.30;101934.38;1663815;84;21220;-84
2022/05/04 07:07:15;;;;;;;4.47;2.67;;;;;;;11.90;38.38;101930.91;1660974;84;21209;-84
2022/05/04 07:09:42;;;;;;;6.45;2.90;;;;;;;12.06;38.36;101934.62;1698919;83;21152;-81
2022/05/04 07:12:10;;;;;;;5.15;3.00;;;;;;;12.06;38.05;101933.30;1684652;82;21125;-81
2022/05/04 07:14:38;;;;;;;11.20;4.60;;;;;;;12.07;38.18;101940.39;1689577;83;22398;-84
2022/05/04 07:17:06;;;;;;;4.80;2.83;;;;;;;12.21;38.29;101939.14;1695746;82;21162;-82
2022/05/04 07:19:33;;;;;;;8.03;2.77;;;;;;;12.36;37.97;101940.56;1709136;81;21102;-81
2022/05/04 07:22:00;;;;;;;5.97;2.85;;;;;;;12.40;37.86;101929.27;1703905;82;21130;-82
2022/05/04 07:24:28;;;;;;;8.20;2.70;;;;;;;12.48;37.63;101930.86;1710689;82;21723;-84
2022/05/04 07:26:57;;;;;;;5.05;2.60;;;;;;;12.59;37.76;101936.11;1711499;81;21773;-81
2022/05/04 07:29:24;;;;;;;5.33;2.40;;;;;;;12.75;37.58;101924.36;1698840;83;21880;-84
2022/05/04 07:31:50;;;;;;;4.83;2.50;;;;;;;12.83;37.29;101926.40;1713281;82;21149;-82
2022/05/04 07:34:22;;;;;;;7.20;2.40;;;;;;;12.96;37.50;101925.52;1719071;81;21162;-81
2022/05/04 07:36:46;;;;;;;5.15;1.82;;;;;;;13.08;37.23;101928.98;1733050;81;21049;-81
2022/05/04 07:42:21;;;;;;;4.00;2.08;;;;;;;13.20;37.17;101932.05;1738341;81;21767;-82
2022/05/04 07:44:27;;;;;;;7.55;2.60;;;;;;;13.66;37.33;101926.93;1743837;81;22262;-81
2022/05/04 07:46:54;;;;;;;6.15;2.17;;;;;;;13.76;36.59;101924.17;1702568;83;21196;-83
2022/05/04 07:49:27;;;;;;;6.55;1.72;;;;;;;13.76;36.48;101928.14;1710089;82;21151;-81
2022/05/04 07:51:55;;;;;;;2.98;1.82;;;;;;;13.79;36.18;101925.56;1690543;83;22682;-81
2022/05/04 07:54:22;;;;;;;5.92;1.70;;;;;;;13.84;36.15;101921.76;1710167;82;21106;-82
2022/05/04 07:56:49;;;;;;;4.05;1.70;;;;;;;13.84;35.90;101927.94;1716232;82;21607;-82
2022/05/04 07:59:17;;;;;;;7.60;1.65;;;;;;;13.90;35.99;101922.82;1709661;82;21560;-81
2022/05/04 08:04:29;;;;;;;3.45;1.72;;;;;;;14.04;35.09;101922.33;1696861;83;21804;-85
2022/05/04 08:06:56;;;;;;;5.15;1.92;;;;;;;13.97;34.75;101924.80;1717569;81;22374;-84
2022/05/04 08:09:23;;;;;;;4.70;2.40;;;;;;;13.90;34.56;101929.88;1696375;83;21136;-81
2022/05/04 08:11:50;;;;;;;3.17;1.77;;;;;;;13.81;34.55;101930.48;1706329;81;21603;-82
2022/05/04 08:14:17;;;;;;;4.45;1.80;;;;;;;13.79;34.66;101930.86;1720163;81;21090;-82
2022/05/04 08:16:44;;;;;;;5.15;1.87;;;;;;;13.85;34.74;101927.10;1748905;81;21979;-81
2022/05/04 08:19:11;;;;;;;3.50;2.00;;;;;;;13.99;34.82;101932.36;1728508;81;21080;-81
2022/05/04 08:21:37;;;;;;;4.95;1.65;;;;;;;13.96;34.54;101927.41;1708497;82;21305;-84
2022/05/04 08:24:07;;;;;;;6.45;1.75;;;;;;;13.95;34.66;101928.27;1679765;83;22065;-84
2022/05/04 08:26:34;;;;;;;4.40;1.62;;;;;;;13.96;34.72;101930.05;1711761;82;21122;-83
2022/05/04 08:29:01;;;;;;;3.42;1.70;;;;;;;14.05;34.91;101929.44;1712551;82;22399;-84
2022/05/04 08:31:29;;;;;;;4.55;2.65;;;;;;;14.00;34.78;101930.20;1716181;82;21125;-84
2022/05/04 08:33:56;;;;;;;7.08;2.20;;;;;;;13.99;34.80;101927.51;1741398;81;21112;-82
2022/05/04 08:36:24;;;;;;;5.85;1.90;;;;;;;13.98;34.55;101932.31;1742807;81;21057;-81
2022/05/04 08:38:51;;;;;;;5.17;2.00;;;;;;;14.08;34.51;101926.89;1685831;82;21445;-84
2022/05/04 08:41:18;;;;;;;3.17;1.80;;;;;;;14.24;34.72;101930.44;1709578;81;21222;-84
2022/05/04 08:43:44;;;;;;;3.98;1.72;;;;;;;14.36;34.32;101937.42;1659195;84;21132;-84
2022/05/04 08:46:14;;;;;;;4.08;1.70;;;;;;;14.36;34.01;101936.53;1687628;83;21614;-81
2022/05/04 08:48:42;;;;;;;5.55;1.77;;;;;;;14.34;34.18;101935.16;1691224;83;21615;-84
2022/05/04 08:51:10;;;;;;;5.62;1.50;;;;;;;14.52;34.50;101934.75;1692266;83;21117;-81
2022/05/04 08:53:38;;;;;;;6.80;2.20;;;;;;;14.75;34.28;101936.77;1670472;84;21997;-82
2022/05/04 08:56:05;;;;;;;2.52;1.27;;;;;;;14.97;33.85;101934.23;1698978;83;21114;-81
2022/05/04 08:58:37;;;;;;;3.42;1.50;;;;;;;15.14;33.56;101937.75;1683643;82;21130;-81
2022/05/04 09:01:05;;;;;;;4.62;1.67;;;;;;;15.22;33.18;101932.23;1714358;82;21166;-81
2022/05/04 09:03:35;;;;;;;5.10;1.82;;;;;;;15.26;33.24;101922.55;1708787;82;21614;-81
2022/05/04 09:06:02;;;;;;;3.55;1.65;;;;;;;15.34;32.89;101936.48;1711500;83;21825;-81
2022/05/04 09:08:28;;;;;;;3.33;1.80;;;;;;;15.30;32.46;101941.26;1745494;81;21061;-81
2022/05/04 09:10:55;;;;;;;5.85;1.80;;;;;;;15.39;32.23;101935.70;1740580;81;21074;-84
2022/05/04 09:13:22;;;;;;;2.98;1.90;;;;;;;15.37;32.20;101935.66;1739062;81;21549;-81
2022/05/04 09:15:51;;;;;;;4.30;1.75;;;;;;;15.45;32.49;101930.12;1742001;81;21246;-84
2022/05/04 09:18:17;;;;;;;6.20;2.20;;;;;;;15.67;32.63;101937.24;1689457;84;21836;-84
2022/05/04 09:23:30;;;;;;;4.08;1.72;;;;;;;15.64;32.35;101934.54;1648610;84;21133;-81
2022/05/04 09:26:00;;;;;;;10.08;2.05;;;;;;;15.82;32.42;101927.03;1687179;83;21521;-84
2022/05/04 09:28:32;;;;;;;4.90;2.10;;;;;;;16.00;32.24;101930.94;1712244;82;21630;-85
2022/05/04 09:31:11;;;;;;;;;;;;;;;16.08;32.39;101933.31;1706940;83;21273;-85
2022/05/04 09:33:35;;;;;;;3.37;1.90;;;;;;;16.04;32.08;101921.73;1746976;81;20267;-85
2022/05/04 09:36:07;;;;;;;5.87;1.80;;;;;;;16.05;32.16;101931.50;1727931;81;21563;-85
2022/05/04 09:46:55;;;;;;;6.75;2.25;;;;;;;16.00;32.45;101912.35;1671856;83;21193;-85
2022/05/04 09:49:25;;;;;;;4.55;1.95;;;;;;;16.15;32.56;101917.09;1709917;82;21117;-85
2022/05/04 09:51:53;;;;;;;5.17;1.90;;;;;;;16.22;32.39;101916.36;1709559;80;21691;-85
2022/05/04 09:54:27;;;;;;;6.03;2.30;;;;;;;16.37;32.56;101911.75;1701022;83;21102;-82
2022/05/04 09:57:06;;;;;;;4.60;2.20;;;;;;;16.48;32.53;101908.47;1711825;81;22529;-81
2022/05/04 09:59:36;;;;;;;5.03;2.00;;;;;;;16.48;32.22;101906.25;1690987;83;21061;-82
2022/05/04 10:02:07;;;;;;;4.78;2.10;;;;;;;16.41;32.25;101909.65;1680829;83;21078;-84
2022/05/04 10:04:33;;;;;;;4.72;2.27;;;;;;;16.34;32.36;101909.95;1683660;84;21217;-85
2022/05/04 10:07:00;;;;;;;4.00;1.80;;;;;;;16.43;32.66;101905.26;1712337;82;21073;-85
2022/05/04 10:09:28;;;;;;;4.72;2.47;;;;;;;16.49;32.37;101904.92;1711038;82;21816;-85
2022/05/04 10:11:57;;;;;;;4.35;1.90;;;;;;;16.43;32.48;101907.47;1706365;82;21121;-85
2022/05/04 10:14:25;;;;;;;6.15;2.12;;;;;;;16.55;32.80;101900.59;1722903;83;21724;-85
2022/05/04 10:17:11;;;;;;;3.33;1.77;;;;;;;16.65;32.79;101898.59;1738280;81;21205;-84
2022/05/04 10:19:58;;;;;;;5.10;2.20;;;;;;;16.78;32.69;101899.27;1705164;82;21599;-84
2022/05/04 10:22:34;;;;;;;4.22;1.80;;;;;;;16.74;32.21;101898.73;1718499;81;21780;-84
2022/05/04 10:25:01;;;;;;;2.83;1.50;;;;;;;16.72;31.88;101889.83;1707690;83;21033;-84
2022/05/04 10:27:28;;;;;;;2.02;1.30;;;;;;;16.76;31.79;101894.77;1713220;82;21676;-84
2022/05/04 10:32:50;;;;;;;2.55;1.30;;;;;;;16.82;31.60;101882.94;1697606;82;21089;-82
2022/05/04 10:35:41;;;;;;;2.92;1.30;;;;;;;16.82;31.12;101882.94;1692213;82;22532;-82
2022/05/04 10:38:26;;;;;;;3.27;1.52;;;;;;;16.81;31.44;101878.47;1662445;83;21109;-81
2022/05/04 10:41:02;;;;;;;3.25;1.50;;;;;;;16.75;31.07;101883.25;1711215;82;21088;-81
2022/05/04 10:43:45;;;;;;;3.10;1.60;;;;;;;16.78;30.86;101887.72;1701718;81;21217;-81
2022/05/04 10:46:18;;;;;;;4.85;1.50;;;;;;;16.83;30.82;101882.97;1642174;85;21121;-81
2022/05/04 10:48:59;;;;;;;2.22;1.32;;;;;;;16.81;30.40;101890.00;1695509;83;21867;-81
2022/05/04 10:51:50;;;;;;;2.95;1.30;;;;;;;16.79;30.27;101881.55;1706583;81;21081;-84
2022/05/04 10:54:18;;;;;;;4.10;1.65;;;;;;;16.75;29.89;101879.27;1690583;82;22111;-81
2022/05/04 10:56:49;;;;;;;5.33;1.50;;;;;;;16.80;29.96;101878.92;1700275;82;21088;-81
2022/05/04 10:59:34;;;;;;;2.25;1.20;;;;;;;16.84;29.80;101882.12;1655779;83;21345;-84
2022/05/04 11:02:06;;;;;;;3.72;1.07;;;;;;;16.77;29.59;101876.64;1682835;83;21818;-84
2022/05/04 11:04:36;;;;;;;1.90;1.25;;;;;;;16.71;29.40;101878.31;1724592;82;21114;-84
2022/05/04 11:07:06;;;;;;;2.87;1.20;;;;;;;16.63;29.20;101881.69;1709056;82;21078;-84
2022/05/04 11:09:39;;;;;;;3.47;1.50;;;;;;;16.47;29.18;101877.42;1716059;82;21643;-82
2022/05/04 11:12:07;;;;;;;2.17;1.30;;;;;;;16.45;29.41;101880.93;1707300;82;21605;-82
2022/05/04 11:14:37;;;;;;;5.72;1.20;;;;;;;16.38;29.59;101881.23;1736072;80;21797;-81
2022/05/04 11:17:13;;;;;;;3.45;1.27;;;;;;;16.27;29.40;101877.47;1701816;81;21122;-81
2022/05/04 11:19:45;;;;;;;3.45;1.57;;;;;;;15.96;29.09;101874.21;1681206;83;21118;-82
2022/05/04 11:22:13;;;;;;;4.62;1.17;;;;;;;15.74;29.27;101879.48;1704743;82;21148;-81
2022/05/04 11:24:40;;;;;;;5.05;1.45;;;;;;;15.61;29.28;101873.41;1673024;83;21374;-81
2022/05/04 11:27:07;;;;;;;2.15;1.25;;;;;;;15.52;29.39;101868.38;1713277;82;21914;-81
2022/05/04 11:29:35;;;;;;;4.85;1.35;;;;;;;15.42;29.42;101874.32;1714480;81;21640;-83
2022/05/04 11:32:05;;;;;;;2.80;1.12;;;;;;;15.28;29.38;101870.03;1693675;81;21121;-84
2022/05/04 11:34:36;;;;;;;6.22;1.20;;;;;;;15.19;29.56;101868.92;1716015;81;21128;-82
2022/05/04 11:37:09;;;;;;;4.80;1.30;;;;;;;15.15;29.59;101862.20;1692544;81;21145;-85
2022/05/04 11:39:38;;;;;;;1.95;1.42;;;;;;;15.07;29.28;101862.88;1736154;81;22793;-84
2022/05/04 11:42:07;;;;;;;2.25;1.30;;;;;;;14.96;29.23;101862.19;1720277;81;21148;-82
2022/05/04 11:44:34;;;;;;;3.80;1.00;;;;;;;14.85;29.31;101870.31;1711316;81;21209;-81
2022/05/04 11:47:02;;;;;;;2.62;1.30;;;;;;;14.82;29.40;101864.03;1661915;84;21625;-84
2022/05/04 11:49:32;;;;;;;2.37;1.50;;;;;;;14.73;29.27;101863.35;1726612;81;21146;-84
2022/05/04 11:51:59;;;;;;;2.83;1.30;;;;;;;14.67;29.53;101857.47;1688994;82;23072;-83
2022/05/04 11:54:26;;;;;;;5.55;1.40;;;;;;;14.71;29.65;101859.77;1698939;83;21107;-84
2022/05/04 11:56:53;;;;;;;6.22;1.60;;;;;;;14.69;29.67;101856.19;1710116;82;21544;-84
2022/05/04 11:59:20;;;;;;;1.90;1.10;;;;;;;14.63;29.42;101845.44;1734358;81;21142;-84
2022/05/04 12:01:47;;;;;;;4.25;1.10;;;;;;;14.60;29.56;101851.97;1738789;81;21050;-84
2022/05/04 12:04:14;;;;;;;5.67;2.12;;;;;;;14.57;29.65;101852.36;1742442;81;21751;-84
2022/05/04 12:06:43;;;;;;;2.67;1.30;;;;;;;14.56;29.54;101853.61;1709410;82;21051;-84
2022/05/04 12:09:11;;;;;;;6.83;1.75;;;;;;;14.51;29.53;101850.85;1717777;81;21149;-84
2022/05/04 12:11:38;;;;;;;4.60;1.20;;;;;;;14.48;29.63;101852.08;1711446;81;21659;-83